createdAt,value
2022-09-20T00:01:14.165Z,11.99
2022-09-20T00:04:16.490Z,11.98
2022-09-20T00:07:18.628Z,11.91
2022-09-20T00:10:23.187Z,11.88
2022-09-20T00:13:25.324Z,11.87
2022-09-20T00:16:29.099Z,11.82
2022-09-20T00:19:31.270Z,11.84
2022-09-20T00:22:33.687Z,11.80
2022-09-20T00:25:35.737Z,11.78
2022-09-20T00:28:38.123Z,11.76
2022-09-20T00:31:42.788Z,11.73
2022-09-20T00:35:04.106Z,11.72
2022-09-20T00:38:06.175Z,11.72
2022-09-20T00:41:08.991Z,11.66
2022-09-20T00:44:29.584Z,11.66
2022-09-20T00:47:31.895Z,11.63
2022-09-20T00:50:38.051Z,11.60
2022-09-20T00:53:43.214Z,11.59
2022-09-20T00:56:45.273Z,11.56
2022-09-20T00:59:49.212Z,11.55
2022-09-20T01:02:55.144Z,11.52
2022-09-20T01:05:58.987Z,11.51
2022-09-20T01:09:03.077Z,11.51
2022-09-20T01:12:06.882Z,11.49
2022-09-20T01:15:09.568Z,11.46
2022-09-20T01:18:13.263Z,11.43
2022-09-20T01:21:15.771Z,11.43
2022-09-20T01:24:17.995Z,11.46
2022-09-20T01:27:40.274Z,11.45
2022-09-20T01:31:01.229Z,11.44
2022-09-20T01:34:03.228Z,11.42
2022-09-20T01:37:16.558Z,11.40
2022-09-20T01:40:28.875Z,11.40
2022-09-20T01:43:40.384Z,11.37
2022-09-20T01:46:43.929Z,11.33
2022-09-20T01:50:04.758Z,11.32
2022-09-20T01:53:06.832Z,11.34
2022-09-20T01:56:30.219Z,11.29
2022-09-20T01:59:32.507Z,11.26
2022-09-20T02:02:35.087Z,11.25
2022-09-20T02:05:53.028Z,11.24
2022-09-20T02:08:57.903Z,11.24
2022-09-20T02:12:19.641Z,11.22
2022-09-20T02:15:27.621Z,11.22
2022-09-20T02:18:45.292Z,11.20
2022-09-20T02:21:54.025Z,11.20
2022-09-20T02:25:05.514Z,11.16
2022-09-20T02:28:26.133Z,11.15
2022-09-20T02:31:40.952Z,11.15
2022-09-20T02:34:49.347Z,11.14
2022-09-20T02:37:57.634Z,11.16
2022-09-20T02:41:18.607Z,11.14
2022-09-20T02:44:33.070Z,11.13
2022-09-20T02:47:43.503Z,11.09
2022-09-20T02:50:49.797Z,11.09
2022-09-20T02:54:07.249Z,11.06
2022-09-20T02:57:28.417Z,11.02
2022-09-20T03:00:38.377Z,11.01
2022-09-20T03:04:01.397Z,11.00
2022-09-20T03:07:10.670Z,10.97
2022-09-20T03:10:13.016Z,10.96
2022-09-20T03:13:15.022Z,10.95
2022-09-20T03:16:17.362Z,10.96
2022-09-20T03:19:37.823Z,10.97
2022-09-20T03:22:43.179Z,10.94
2022-09-20T03:25:51.454Z,10.92
2022-09-20T03:28:53.743Z,10.90
2022-09-20T03:32:01.616Z,10.90
2022-09-20T03:35:16.452Z,10.90
2022-09-20T03:38:31.227Z,10.88
2022-09-20T03:41:41.141Z,10.86
2022-09-20T03:44:52.497Z,10.87
2022-09-20T03:48:22.232Z,10.83
2022-09-20T03:51:45.384Z,10.82
2022-09-20T03:54:50.924Z,10.84
2022-09-20T03:57:55.998Z,10.79
2022-09-20T04:01:28.012Z,10.79
2022-09-20T04:04:30.487Z,10.80
2022-09-20T04:07:32.644Z,10.79
2022-09-20T04:10:55.104Z,10.78
2022-09-20T04:14:16.593Z,10.76
2022-09-20T04:17:25.173Z,10.75
2022-09-20T04:20:38.930Z,10.74
2022-09-20T04:23:51.500Z,10.73
2022-09-20T04:27:01.249Z,10.72
2022-09-20T04:30:07.029Z,10.68
2022-09-20T04:33:15.083Z,10.69
2022-09-20T04:36:30.418Z,10.68
2022-09-20T04:39:36.065Z,10.67
2022-09-20T04:42:59.755Z,10.68
2022-09-20T04:46:09.981Z,10.65
2022-09-20T04:49:21.480Z,10.68
2022-09-20T04:52:39.334Z,10.68
2022-09-20T04:56:10.078Z,10.68
2022-09-20T04:59:38.748Z,10.70
2022-09-20T05:02:50.686Z,10.70
2022-09-20T05:05:56.351Z,10.71
2022-09-20T05:09:14.199Z,10.73
2022-09-20T05:12:58.660Z,10.74
2022-09-20T05:16:04.396Z,10.76
2022-09-20T05:19:12.242Z,10.81
2022-09-20T05:22:19.191Z,10.83
2022-09-20T05:25:27.253Z,10.86
2022-09-20T05:28:49.732Z,10.91
2022-09-20T05:31:54.963Z,10.95
2022-09-20T05:35:04.765Z,11.00
2022-09-20T05:38:19.071Z,11.06
2022-09-20T05:41:39.295Z,11.10
2022-09-20T05:44:47.567Z,11.15
2022-09-20T05:48:08.616Z,11.22
2022-09-20T05:51:23.871Z,11.27
2022-09-20T05:54:45.953Z,11.32
2022-09-20T05:58:05.691Z,11.34
2022-09-20T06:01:32.045Z,11.38
2022-09-20T06:04:57.450Z,11.46
2022-09-20T06:08:03.807Z,11.52
2022-09-20T06:11:10.672Z,11.62
2022-09-20T06:14:27.666Z,11.70
2022-09-20T06:17:37.783Z,11.74
2022-09-20T06:21:20.351Z,11.81
2022-09-20T06:24:37.657Z,11.94
2022-09-20T06:27:47.465Z,12.06
2022-09-20T06:31:02.718Z,12.18
2022-09-20T06:34:13.309Z,12.32
2022-09-20T06:37:40.414Z,12.48
2022-09-20T06:41:07.104Z,12.68
2022-09-20T06:44:09.678Z,12.91
2022-09-20T06:47:14.599Z,13.13
2022-09-20T06:50:17.497Z,13.28
2022-09-20T06:53:23.710Z,13.47
2022-09-20T06:56:28.277Z,13.66
2022-09-20T06:59:32.254Z,13.83
2022-09-20T07:02:37.125Z,14.07
2022-09-20T07:05:39.483Z,14.32
2022-09-20T07:08:43.424Z,14.54
2022-09-20T07:11:46.339Z,14.69
2022-09-20T07:14:50.583Z,14.95
2022-09-20T07:17:53.058Z,15.20
2022-09-20T07:20:58.888Z,15.39
2022-09-20T07:24:02.142Z,15.74
2022-09-20T07:27:05.502Z,16.12
2022-09-20T07:30:08.194Z,16.33
2022-09-20T07:33:17.238Z,16.65
2022-09-20T07:36:19.498Z,16.99
2022-09-20T07:39:27.900Z,17.29
2022-09-20T07:42:30.231Z,18.10
2022-09-20T07:45:34.240Z,21.05
2022-09-20T07:48:36.918Z,23.41
2022-09-20T07:51:39.420Z,25.76
2022-09-20T07:54:41.680Z,27.00
2022-09-20T07:57:44.197Z,27.93
2022-09-20T08:00:51.239Z,28.36
2022-09-20T08:03:54.846Z,28.75
2022-09-20T08:06:58.642Z,27.72
2022-09-20T08:10:00.896Z,25.29
2022-09-20T08:16:27.120Z,23.48
2022-09-20T08:19:30.486Z,23.06
2022-09-20T08:22:32.982Z,22.84
2022-09-20T08:25:35.245Z,23.12
2022-09-20T08:28:38.484Z,23.02
2022-09-20T08:31:42.468Z,23.27
2022-09-20T08:34:49.200Z,23.42
2022-09-20T08:37:55.233Z,22.58
2022-09-20T08:40:59.831Z,21.92
2022-09-20T08:44:10.746Z,21.60
2022-09-20T08:47:13.258Z,21.86
2022-09-20T08:50:18.391Z,21.75
2022-09-20T08:53:21.736Z,21.57
2022-09-20T08:56:26.511Z,21.01
2022-09-20T08:59:29.449Z,20.73
2022-09-20T09:02:32.445Z,20.37
2022-09-20T09:05:36.523Z,20.13
2022-09-20T09:08:44.659Z,19.65
2022-09-20T09:11:49.264Z,19.40
2022-09-20T09:14:55.271Z,19.25
2022-09-20T09:17:58.094Z,19.65
2022-09-20T09:21:04.310Z,19.78
2022-09-20T09:24:17.030Z,20.06
2022-09-20T09:27:19.776Z,19.98
2022-09-20T09:30:26.660Z,20.39
2022-09-20T09:33:34.977Z,20.63
2022-09-20T09:36:44.151Z,20.74
2022-09-20T09:39:47.097Z,21.07
2022-09-20T09:42:57.278Z,21.50
2022-09-20T09:46:29.539Z,22.00
2022-09-20T09:49:36.239Z,21.96
2022-09-20T09:52:38.691Z,21.70
2022-09-20T09:55:59.814Z,22.17
2022-09-20T09:59:23.104Z,22.28
2022-09-20T10:02:44.297Z,22.32
2022-09-20T10:05:55.808Z,22.94
2022-09-20T10:09:03.819Z,23.48
2022-09-20T10:12:26.301Z,23.40
2022-09-20T10:15:31.710Z,23.20
2022-09-20T10:18:33.987Z,22.42
2022-09-20T10:21:39.074Z,22.06
2022-09-20T10:25:10.341Z,21.53
2022-09-20T10:28:28.101Z,21.25
2022-09-20T10:31:36.903Z,21.05
2022-09-20T10:34:39.357Z,21.20
2022-09-20T10:38:14.553Z,21.40
2022-09-20T10:42:13.771Z,21.93
2022-09-20T10:45:44.326Z,22.06
2022-09-20T10:48:52.982Z,21.66
2022-09-20T10:52:13.933Z,21.22
2022-09-20T10:55:20.412Z,20.75
2022-09-20T10:58:56.479Z,20.50
2022-09-20T11:02:17.217Z,20.39
2022-09-20T11:05:22.489Z,21.10
2022-09-20T11:08:26.986Z,21.46
2022-09-20T11:11:32.873Z,22.04
2022-09-20T11:14:38.945Z,22.17
2022-09-20T11:17:49.841Z,22.13
2022-09-20T11:20:55.362Z,21.81
2022-09-20T11:23:58.221Z,21.49
2022-09-20T11:27:06.896Z,20.85
2022-09-20T11:30:21.591Z,20.44
2022-09-20T11:33:31.753Z,20.15
2022-09-20T11:36:42.853Z,19.83
2022-09-20T11:39:50.369Z,19.46
2022-09-20T11:42:53.416Z,19.08
2022-09-20T11:46:00.142Z,18.84
2022-09-20T11:49:11.645Z,18.81
2022-09-20T11:52:26.215Z,19.29
2022-09-20T11:55:48.279Z,19.87
2022-09-20T11:58:55.967Z,20.64
2022-09-20T12:02:01.798Z,20.53
2022-09-20T12:05:06.027Z,21.12
2022-09-20T12:08:19.448Z,21.71
2022-09-20T12:11:31.084Z,21.90
2022-09-20T12:14:42.300Z,22.27
2022-09-20T12:17:51.371Z,22.62
2022-09-20T12:20:56.431Z,22.81
2022-09-20T12:23:58.816Z,23.00
2022-09-20T12:27:07.264Z,23.26
2022-09-20T12:30:19.647Z,23.36
2022-09-20T12:33:22.219Z,23.41
2022-09-20T12:36:25.528Z,23.37
2022-09-20T12:39:30.240Z,23.48
2022-09-20T12:42:33.446Z,23.49
2022-09-20T12:45:36.991Z,23.42
2022-09-20T12:48:41.803Z,23.07
2022-09-20T12:52:09.738Z,22.82
2022-09-20T12:55:13.278Z,22.27
2022-09-20T12:58:22.940Z,21.86
2022-09-20T13:01:25.333Z,21.51
2022-09-20T13:04:40.354Z,20.98
2022-09-20T13:07:48.014Z,20.86
2022-09-20T13:11:02.371Z,20.64
2022-09-20T13:14:10.417Z,20.43
2022-09-20T13:17:13.613Z,20.19
2022-09-20T13:20:28.046Z,20.18
2022-09-20T13:23:32.145Z,20.19
2022-09-20T13:26:39.603Z,20.58
2022-09-20T13:29:43.029Z,20.66
2022-09-20T13:32:45.637Z,20.91
2022-09-20T13:35:48.433Z,20.80
2022-09-20T13:38:51.061Z,20.70
2022-09-20T13:41:53.251Z,20.64
2022-09-20T13:44:57.171Z,20.43
2022-09-20T13:48:00.138Z,20.11
2022-09-20T13:51:02.623Z,19.88
2022-09-20T13:54:24.305Z,19.85
2022-09-20T13:57:30.914Z,19.81
2022-09-20T14:00:57.789Z,19.79
2022-09-20T14:04:18.694Z,19.93
2022-09-20T14:07:21.241Z,19.94
2022-09-20T14:10:28.179Z,20.15
2022-09-20T14:13:33.496Z,20.18
2022-09-20T14:16:39.595Z,20.13
2022-09-20T14:19:42.552Z,19.93
2022-09-20T14:22:47.126Z,19.67
2022-09-20T14:26:07.903Z,19.51
2022-09-20T14:29:30.335Z,19.21
2022-09-20T14:32:32.333Z,19.01
2022-09-20T14:35:34.706Z,18.66
2022-09-20T14:38:37.994Z,18.49
2022-09-20T14:41:43.753Z,18.35
2022-09-20T14:44:50.190Z,18.24
2022-09-20T14:47:57.007Z,18.14
2022-09-20T14:51:08.338Z,17.97
2022-09-20T14:54:11.604Z,17.84
2022-09-20T14:57:16.588Z,17.77
2022-09-20T15:00:19.524Z,17.74
2022-09-20T15:03:31.031Z,17.63
2022-09-20T15:06:34.964Z,17.49
2022-09-20T15:09:37.411Z,17.36
2022-09-20T15:12:42.265Z,17.21
2022-09-20T15:15:44.499Z,17.15
2022-09-20T15:18:47.147Z,17.14
2022-09-20T15:21:51.661Z,17.06
2022-09-20T15:24:54.093Z,16.99
2022-09-20T15:27:57.852Z,16.89
2022-09-20T15:31:00.402Z,16.80
2022-09-20T15:34:08.254Z,16.67
2022-09-20T15:37:10.577Z,16.49
2022-09-20T15:40:12.816Z,16.40
2022-09-20T15:43:18.122Z,16.31
2022-09-20T15:46:22.037Z,16.16
2022-09-20T15:49:25.446Z,16.04
2022-09-20T15:52:34.416Z,15.76
2022-09-20T15:55:38.953Z,15.65
2022-09-20T15:58:43.915Z,15.56
2022-09-20T16:01:48.228Z,15.49
2022-09-20T16:04:54.812Z,15.36
2022-09-20T16:07:57.988Z,15.35
2022-09-20T16:11:00.727Z,15.26
2022-09-20T16:14:02.749Z,15.20
2022-09-20T16:17:06.563Z,15.14
2022-09-20T16:20:08.950Z,15.10
2022-09-20T16:23:16.532Z,15.05
2022-09-20T16:26:19.726Z,15.00
2022-09-20T16:29:22.411Z,14.95
2022-09-20T16:32:24.404Z,14.83
2022-09-20T16:35:26.695Z,14.75
2022-09-20T16:38:28.724Z,14.69
2022-09-20T16:41:32.422Z,14.62
2022-09-20T16:44:35.576Z,14.60
2022-09-20T16:47:41.140Z,14.52
2022-09-20T16:50:48.756Z,14.49
2022-09-20T16:53:56.429Z,14.46
2022-09-20T16:57:01.422Z,14.42
2022-09-20T17:00:05.446Z,14.39
2022-09-20T17:03:09.896Z,14.23
2022-09-20T17:06:12.353Z,14.19
2022-09-20T17:09:15.337Z,14.12
2022-09-20T17:12:22.104Z,14.07
2022-09-20T17:15:24.511Z,13.98
2022-09-20T17:18:31.220Z,13.95
2022-09-20T17:21:37.365Z,13.88
2022-09-20T17:24:39.681Z,13.84
2022-09-20T17:27:43.159Z,13.79
2022-09-20T17:30:53.725Z,13.75
2022-09-20T17:33:59.976Z,13.69
2022-09-20T17:37:03.438Z,13.66
2022-09-20T17:40:05.806Z,13.58
2022-09-20T17:43:08.203Z,13.54
2022-09-20T17:46:13.135Z,13.50
2022-09-20T17:49:18.145Z,13.45
2022-09-20T17:52:20.394Z,13.38
2022-09-20T17:55:23.675Z,13.36
2022-09-20T17:58:26.245Z,13.33
2022-09-20T18:01:29.258Z,13.29
2022-09-20T18:04:32.445Z,13.24
2022-09-20T18:07:34.434Z,13.20
2022-09-20T18:10:36.775Z,13.17
2022-09-20T18:13:38.823Z,13.16
2022-09-20T18:16:43.139Z,13.12
2022-09-20T18:19:45.139Z,13.10
2022-09-20T18:22:49.763Z,13.08
2022-09-20T18:26:12.546Z,13.04
2022-09-20T18:29:17.829Z,12.99
2022-09-20T18:32:19.909Z,12.93
2022-09-20T18:35:22.939Z,12.89
2022-09-20T18:38:24.930Z,12.84
2022-09-20T18:41:28.608Z,12.80
2022-09-20T18:44:32.319Z,12.76
2022-09-20T18:47:34.619Z,12.73
2022-09-20T18:50:36.651Z,12.68
2022-09-20T18:53:39.026Z,12.63
2022-09-20T18:56:42.190Z,12.59
2022-09-20T18:59:54.082Z,12.56
2022-09-20T19:03:22.760Z,12.55
2022-09-20T19:06:30.588Z,12.53
2022-09-20T19:09:37.258Z,12.46
2022-09-20T19:12:39.620Z,12.44
2022-09-20T19:15:48.790Z,12.40
2022-09-20T19:19:02.495Z,12.38
2022-09-20T19:22:18.874Z,12.33
2022-09-20T19:25:40.828Z,12.28
2022-09-20T19:28:44.966Z,12.24
2022-09-20T19:31:56.141Z,12.19
2022-09-20T19:35:01.955Z,12.18
2022-09-20T19:38:15.508Z,12.16
2022-09-20T19:41:20.806Z,12.14
2022-09-20T19:44:41.775Z,12.13
2022-09-20T19:48:00.182Z,12.13
2022-09-20T19:51:04.325Z,12.13
2022-09-20T19:54:06.810Z,12.11
2022-09-20T19:57:16.207Z,12.10
2022-09-20T20:00:19.911Z,12.09
2022-09-20T20:03:30.127Z,12.07
2022-09-20T20:06:53.809Z,12.03
2022-09-20T20:09:59.618Z,12.00
2022-09-20T20:13:26.821Z,11.97
2022-09-20T20:16:44.762Z,11.96
2022-09-20T20:19:54.221Z,11.94
2022-09-20T20:23:05.015Z,11.95
2022-09-20T20:26:17.581Z,11.98
2022-09-20T20:29:30.659Z,11.96
2022-09-20T20:32:32.868Z,11.97
2022-09-20T20:35:37.492Z,11.97
2022-09-20T20:38:49.928Z,11.94
2022-09-20T20:41:53.735Z,11.92
2022-09-20T20:44:58.173Z,11.90
2022-09-20T20:48:00.777Z,11.88
2022-09-20T20:51:09.689Z,11.87
2022-09-20T20:54:14.769Z,11.83
2022-09-20T20:57:19.028Z,11.79
2022-09-20T21:00:21.429Z,11.77
2022-09-20T21:03:26.273Z,11.78
2022-09-20T21:06:30.171Z,11.75
2022-09-20T21:09:32.210Z,11.73
2022-09-20T21:12:34.535Z,11.69
2022-09-20T21:15:36.589Z,11.70
2022-09-20T21:18:39.931Z,11.61
2022-09-20T21:21:43.700Z,11.59
2022-09-20T21:24:46.925Z,11.60
2022-09-20T21:27:49.477Z,11.56
2022-09-20T21:30:59.485Z,11.55
2022-09-20T21:34:06.010Z,11.54
2022-09-20T21:37:09.580Z,11.54
2022-09-20T21:40:17.831Z,11.52
2022-09-20T21:44:05.644Z,11.53
2022-09-20T21:54:36.837Z,11.47
2022-09-20T21:57:44.813Z,11.42
2022-09-20T22:04:29.236Z,11.39
2022-09-20T22:14:50.735Z,11.35
2022-09-20T22:18:10.818Z,11.32
2022-09-20T22:21:16.057Z,11.30
2022-09-20T22:24:22.708Z,11.26
2022-09-20T22:27:26.044Z,11.23
2022-09-20T22:30:30.007Z,11.25
2022-09-20T22:33:36.115Z,11.24
2022-09-20T22:36:40.504Z,11.24
2022-09-20T22:39:43.964Z,11.24
2022-09-20T22:42:46.388Z,11.21
2022-09-20T22:45:48.618Z,11.18
2022-09-20T22:48:51.376Z,11.15
2022-09-20T22:51:53.642Z,11.12
2022-09-20T22:54:56.311Z,11.12
2022-09-20T22:58:01.390Z,11.08
2022-09-20T23:01:05.597Z,11.09
2022-09-20T23:04:09.719Z,11.12
2022-09-20T23:07:12.285Z,11.09
2022-09-20T23:10:14.389Z,11.09
2022-09-20T23:13:16.877Z,11.06
2022-09-20T23:16:21.689Z,11.04
2022-09-20T23:19:24.230Z,11.01
2022-09-20T23:22:26.402Z,10.98
2022-09-20T23:25:29.579Z,10.93
2022-09-20T23:28:33.596Z,10.90
2022-09-20T23:31:37.088Z,10.87
2022-09-20T23:34:39.187Z,10.88
2022-09-20T23:37:41.513Z,10.86
2022-09-20T23:40:43.696Z,10.84
2022-09-20T23:43:46.175Z,10.84
2022-09-20T23:46:48.573Z,10.81
2022-09-20T23:49:53.383Z,10.78
2022-09-20T23:52:55.588Z,10.79
2022-09-20T23:55:58.055Z,10.79
2022-09-20T23:59:00.169Z,10.80
